Terminal Aerodrome Forecast
Issued by NWS Wilmington, NC

Home | Current Version | Previous Version | Text Only | Print | Product List | Glossary On
Versions: 1 2 3 4 5 6 7 8 9 10 11 12 13 14 15 16 17 18 19 20 21 22 23
000
FTUS42 KILM 181700
TAFFLO
TAF
KFLO 181739Z 1818/1918 07006KT P6SM SCT020 BKN035
     FM190300 07003KT 5SM BR BKN020
     FM190700 06004KT 4SM BR BKN015
     FM191400 07008KT P6SM VCSH SCT020 BKN035 BKN060=

USA.gov is the U.S. government's official web portal to all federal, state and local government web resources and services.